ADDS METAR Data INFO
IDs: Format: Raw Decoded Include TAF

Data at: 2219 UTC 22 Aug 2017

KDWH 222153Z VRB04KT 10SM CLR 35/19 A2998 RMK AO2 LTG DSNT S SLP149 T03500194
KDWH 222053Z 20003KT 10SM FEW060 35/20 A3000 RMK AO2 SLP156 T03500200 58021
KDWH 221953Z VRB04KT 10SM FEW060 35/21 A3002 RMK AO2 SLP165 T03500206
KDWH 221853Z 17003KT 10SM SCT055 34/21 A3004 RMK AO2 SLP171 T03390206
KDWH 221753Z 00000KT 10SM FEW050 34/21 A3006 RMK AO2 SLP177 T03390211 10339 20228 58005
KDWH 221653Z VRB03KT 10SM FEW038 33/22 A3009 RMK AO2 SLP185 T03280222
KDWH 221553Z 17003KT 10SM FEW028 31/23 A3009 RMK AO2 SLP186 T03110233
KDWH 221506Z VRB03KT 10SM SCT022 30/24 A3008 RMK AO2 T03000239
KDWH 221453Z COR 00000KT 10SM SCT022 31/24 A3008 RMK AO2 SLP182 T03060244 51015
KDWH 221353Z 00000KT 10SM CLR 28/24 A3007 RMK AO2 SLP179 T02830244
KDWH 221253Z 00000KT 10SM CLR 26/24 A3005 RMK AO2 SLP174 T02560244
KDWH 221153Z 00000KT 10SM CLR 23/23 A3003 RMK AO2 SLP167 T02330228 10250 20228 55000
KDWH 221053Z AUTO 00000KT 10SM CLR 23/22 A3002 RMK AO2 SLP164 T02280222
KDWH 220953Z AUTO 00000KT 10SM CLR 24/23 A3003 RMK AO2 SLP167 T02390233
KDWH 220853Z AUTO 00000KT 10SM CLR 23/23 A3003 RMK AO2 SLP168 T02330228 56013
KDWH 220753Z AUTO 00000KT 10SM CLR 24/23 A3004 RMK AO2 SLP169 T02390228
KDWH 220653Z AUTO 00000KT 10SM CLR 24/23 A3006 RMK AO2 SLP176 T02440228
KDWH 220553Z AUTO 00000KT 10SM CLR 24/23 A3007 RMK AO2 SLP181 T02440233 10322 20244 403500244 50001
KDWH 220453Z AUTO 00000KT 10SM CLR 27/23 A3008 RMK AO2 SLP185 T02670233
KDWH 220353Z AUTO 12004KT 10SM CLR 28/23 A3009 RMK AO2 SLP187 T02780233
KDWH 220253Z AUTO 13004KT 10SM CLR 28/23 A3007 RMK AO2 SLP180 T02830233 51018
KDWH 220153Z 11005KT 10SM CLR 29/23 A3005 RMK AO2 SLP174 T02890233
KDWH 220053Z 10009KT 10SM CLR 30/23 A3004 RMK AO2 SLP169 T03000228
KDWH 212353Z 09009KT 10SM CLR 32/23 A3002 RMK AO2 SLP162 T03220233 10350 20317 56004
KDWH 212253Z 09010G15KT 10SM FEW050 34/23 A3002 RMK AO2 SLP162 T03390228
KDWH 212153Z 13006KT 10SM FEW050 SCT060 34/23 A3002 RMK AO2 LTG DSNT NE SLP162 T03440228
KDWH 212053Z 12006KT 10SM FEW050 34/22 A3003 RMK AO2 LTG DSNT E SLP166 T03440217 57013
KDWH 211953Z VRB06KT 10SM BKN046 BKN060 33/22 A3004 RMK AO2 SLP171 T03280222
KDWH 211853Z 11006KT 10SM SCT047 BKN055 33/23 A3005 RMK AO2 SLP174 T03280228
KDWH 211753Z VRB04KT 10SM SCT042 BKN065 32/23 A3007 RMK AO2 SLP179 T03220233 10339 20250 58004
KDWH 211653Z 00000KT 10SM SCT055 BKN100 33/24 A3008 RMK AO2 SLP183 T03280239
KDWH 211600Z VRB03KT 10SM FEW047 SCT060 31/24 A3008 RMK AO2 T03110239
KDWH 211553Z 12004KT 10SM BKN029 BKN047 BKN055 32/24 A3008 RMK AO2 SLP184 T03170239
KDWH 211507Z VRB04KT 10SM BKN022 BKN029 31/24 A3008 RMK AO2 T03110244
KDWH 211453Z COR 00000KT 10SM BKN022 31/24 A3008 RMK AO2 SLP183 T03060244 51009
KDWH 211353Z 08004KT 10SM CLR 29/26 A3008 RMK AO2 SLP182 T02890256
KDWH 211253Z 03003KT 10SM CLR 27/25 A3006 RMK AO2 SLP177 T02670250
KDWH 211153Z 00000KT 10SM CLR 25/24 A3005 RMK AO2 SLP174 T02500244 10283 20244 52001
KDWH 211053Z 00000KT 10SM CLR 24/24 A3005 RMK AO2 SLP175 T02440239